Accueil
METAR-TAF:

METAR-TAF

Aéroports :

Aéroport de Londres-Southend

Londres-Southend, Angleterre

latitude: 51-34N, longitude: 000-42E, altitude: 15 m

Observation

Le bulletin a été fait il y a 36 minutes, à 22:50 UTC
Vent calme
Température 5°C
Humidité 87%
Pression 1025 hPa
Visibilité 10 km ou plus
Nuages fragmentés à une hauteur de 4500 ft

METAR: EGMC 222250Z 00000KT 9999 BKN045 05/03 Q1025

Heure: 00:26 (23:26 UTC)

Prévision

Le bulletin a été fait il y a 6 heures et 31 minutes, à 16:55 UTC
Prévision valable du 22 à 18 UTC au 22 à 22 UTC
Vent 8 kt de nord
Visibilité 10 km ou plus
Quelques nuages à une hauteur de 4000 ft

TAF: EGMC 221655Z 2218/2222 35008KT 9999 FEW040

Observations et prévisions météorologiques de plus de 4000 aéroports (messages METAR et TAF).

Les stations disponibles sont représentées par des disques jaunes et rouges sur la carte.

Passer la souris dessus pour voir le nom de la station.

Cliquer dessus pour voir les observations et prévisions météorologiques.

Pour changer de carte: cliquez sur les boutons verts avec une croix noire pour zoomer, sur le bouton vert avec un tiret pour effectuer un zoom arrière, ou sur les flèches vertes pour les cartes adjacentes.


METAR-TAF: